createdAt,value
2023-05-21T00:02:00.350Z,100237.89
2023-05-21T00:04:30.196Z,100238.05
2023-05-21T00:07:00.424Z,100239.23
2023-05-21T00:09:27.433Z,100238.36
2023-05-21T00:11:54.475Z,100237.77
2023-05-21T00:14:21.954Z,100238.86
2023-05-21T00:16:49.523Z,100239.45
2023-05-21T00:19:17.215Z,100238.08
2023-05-21T00:21:46.056Z,100234.55
2023-05-21T00:24:13.515Z,100233.75
2023-05-21T00:26:40.855Z,100234.86
2023-05-21T00:29:08.239Z,100230.98
2023-05-21T00:31:35.535Z,100228.77
2023-05-21T00:34:02.848Z,100220.01
2023-05-21T00:36:31.894Z,100217.90
2023-05-21T00:45:11.830Z,100206.69
2023-05-21T00:47:39.481Z,100207.28
2023-05-21T00:50:07.202Z,100206.21
2023-05-21T00:52:42.166Z,100205.48
2023-05-21T00:55:10.278Z,100211.02
2023-05-21T00:57:37.483Z,100208.62
2023-05-21T01:00:09.252Z,100213.11
2023-05-21T01:02:37.546Z,100216.63
2023-05-21T01:05:08.881Z,100214.34
2023-05-21T01:07:36.945Z,100219.70
2023-05-21T01:10:04.923Z,100209.22
2023-05-21T01:12:32.787Z,100204.73
2023-05-21T01:15:01.050Z,100200.67
2023-05-21T01:17:29.023Z,100198.16
2023-05-21T01:19:57.936Z,100194.59
2023-05-21T01:22:25.396Z,100188.19
2023-05-21T01:24:55.780Z,100187.29
2023-05-21T01:27:23.246Z,100189.98
2023-05-21T01:29:51.220Z,100194.06
2023-05-21T01:32:28.117Z,100203.58
2023-05-21T01:35:10.805Z,100208.93
2023-05-21T01:37:45.976Z,100208.45
2023-05-21T01:40:39.530Z,100204.71
2023-05-21T01:43:07.101Z,100212.52
2023-05-21T01:45:34.671Z,100207.05
2023-05-21T01:48:02.057Z,100199.30
2023-05-21T01:50:29.760Z,100203.14
2023-05-21T01:53:01.403Z,100205.55
2023-05-21T01:55:31.184Z,100198.11
2023-05-21T01:58:01.972Z,100209.02
2023-05-21T02:00:31.216Z,100208.11
2023-05-21T02:02:58.985Z,100212.83
2023-05-21T02:05:26.367Z,100210.73
2023-05-21T02:07:55.106Z,100214.62
2023-05-21T02:10:22.975Z,100208.94
2023-05-21T02:12:50.350Z,100204.09
2023-05-21T02:15:19.499Z,100201.48
2023-05-21T02:17:47.114Z,100199.05
2023-05-21T02:20:14.800Z,100193.77
2023-05-21T02:22:43.916Z,100189.61
2023-05-21T02:25:12.190Z,100186.74
2023-05-21T02:27:40.033Z,100190.70
2023-05-21T02:30:10.986Z,100186.52
2023-05-21T02:32:39.957Z,100186.50
2023-05-21T02:35:07.582Z,100176.11
2023-05-21T02:37:35.163Z,100175.79
2023-05-21T02:40:04.306Z,100166.53
2023-05-21T02:42:31.989Z,100167.19
2023-05-21T02:44:59.349Z,100159.87
2023-05-21T02:47:26.672Z,100157.04
2023-05-21T02:49:54.124Z,100158.98
2023-05-21T02:52:24.305Z,100163.46
2023-05-21T02:54:52.327Z,100168.70
2023-05-21T02:57:19.686Z,100165.86
2023-05-21T02:59:46.814Z,100169.23
2023-05-21T03:02:14.045Z,100171.48
2023-05-21T03:04:46.704Z,100173.77
2023-05-21T03:07:15.258Z,100174.84
2023-05-21T03:09:44.470Z,100173.46
2023-05-21T03:12:11.793Z,100172.21
2023-05-21T03:14:39.711Z,100174.42
2023-05-21T03:17:08.030Z,100175.04
2023-05-21T03:19:36.241Z,100174.55
2023-05-21T03:22:04.810Z,100185.23
2023-05-21T03:24:35.469Z,100185.19
2023-05-21T03:27:03.408Z,100183.45
2023-05-21T03:29:31.382Z,100180.09
2023-05-21T03:31:58.968Z,100181.64
2023-05-21T03:34:26.335Z,100180.23
2023-05-21T03:36:53.921Z,100176.60
2023-05-21T03:39:21.485Z,100182.44
2023-05-21T03:41:49.189Z,100181.26
2023-05-21T03:44:22.072Z,100179.81
2023-05-21T03:46:53.511Z,100179.42
2023-05-21T03:49:24.486Z,100179.89
2023-05-21T03:51:52.514Z,100181.05
2023-05-21T03:54:20.062Z,100190.02
2023-05-21T03:56:47.727Z,100185.52
2023-05-21T03:59:15.072Z,100185.75
2023-05-21T04:01:43.084Z,100184.34
2023-05-21T04:04:12.413Z,100188.67
2023-05-21T04:06:42.546Z,100185.09
2023-05-21T04:09:10.413Z,100178.71
2023-05-21T04:11:37.764Z,100185.87
2023-05-21T04:14:05.024Z,100185.48
2023-05-21T04:16:35.108Z,100179.52
2023-05-21T04:19:02.342Z,100175.86
2023-05-21T04:21:29.984Z,100173.49
2023-05-21T04:23:58.067Z,100173.02
2023-05-21T04:34:29.229Z,100172.58
2023-05-21T04:36:56.291Z,100173.16
2023-05-21T04:39:24.952Z,100173.33
2023-05-21T04:41:54.165Z,100165.15
2023-05-21T04:44:20.839Z,100167.91
2023-05-21T04:46:48.590Z,100163.52
2023-05-21T04:49:15.155Z,100162.59
2023-05-21T04:51:41.732Z,100163.61
2023-05-21T04:54:08.299Z,100162.42
2023-05-21T04:56:35.273Z,100160.02
2023-05-21T04:59:05.298Z,100158.67
2023-05-21T05:01:34.745Z,100158.98
2023-05-21T05:04:01.354Z,100159.21
2023-05-21T05:06:28.019Z,100158.79
2023-05-21T05:08:56.682Z,100158.86
2023-05-21T05:11:23.548Z,100163.16
2023-05-21T05:13:50.788Z,100165.13
2023-05-21T05:16:17.684Z,100173.37
2023-05-21T05:18:45.960Z,100173.08
2023-05-21T05:21:12.737Z,100172.98
2023-05-21T05:23:39.249Z,100171.47
2023-05-21T05:26:07.069Z,100177.80
2023-05-21T05:28:34.034Z,100178.77
2023-05-21T05:31:01.401Z,100180.06
2023-05-21T05:33:28.485Z,100185.92
2023-05-21T05:35:55.122Z,100189.73
2023-05-21T05:38:22.588Z,100194.33
2023-05-21T05:40:49.019Z,100196.87
2023-05-21T05:43:15.821Z,100196.94
2023-05-21T05:45:43.266Z,100196.72
2023-05-21T05:48:16.802Z,100194.16
2023-05-21T05:50:44.473Z,100192.75
2023-05-21T05:53:12.856Z,100191.95
2023-05-21T05:55:40.386Z,100183.95
2023-05-21T05:58:07.173Z,100183.34
2023-05-21T06:00:42.646Z,100194.81
2023-05-21T06:03:09.301Z,100183.07
2023-05-21T06:05:36.151Z,100188.24
2023-05-21T06:08:02.930Z,100187.73
2023-05-21T06:10:29.599Z,100190.14
2023-05-21T06:12:56.212Z,100193.57
2023-05-21T06:15:22.697Z,100192.72
2023-05-21T06:17:49.150Z,100193.96
2023-05-21T06:20:16.819Z,100194.94
2023-05-21T06:22:44.001Z,100195.41
2023-05-21T06:25:10.957Z,100195.35
2023-05-21T06:27:38.428Z,100200.23
2023-05-21T06:30:08.421Z,100198.86
2023-05-21T06:32:37.129Z,100198.62
2023-05-21T06:35:05.019Z,100191.66
2023-05-21T06:37:32.018Z,100189.39
2023-05-21T06:39:58.424Z,100195.78
2023-05-21T06:42:25.463Z,100200.66
2023-05-21T06:44:59.179Z,100190.60
2023-05-21T06:47:29.732Z,100194.11
2023-05-21T06:49:56.356Z,100192.30
2023-05-21T06:52:23.821Z,100198.62
2023-05-21T06:54:50.840Z,100197.34
2023-05-21T06:57:18.429Z,100200.40
2023-05-21T06:59:44.884Z,100201.64
2023-05-21T07:02:11.354Z,100200.48
2023-05-21T07:04:38.210Z,100198.70
2023-05-21T07:07:05.226Z,100203.73
2023-05-21T07:09:32.109Z,100203.54
2023-05-21T07:11:59.085Z,100200.97
2023-05-21T07:14:26.325Z,100205.66
2023-05-21T07:16:53.514Z,100200.50
2023-05-21T07:19:20.774Z,100205.02
2023-05-21T07:21:48.778Z,100196.09
2023-05-21T07:24:15.302Z,100195.36
2023-05-21T07:26:42.498Z,100196.42
2023-05-21T07:29:10.665Z,100194.14
2023-05-21T07:31:38.329Z,100196.05
2023-05-21T07:34:05.762Z,100190.42
2023-05-21T07:36:33.444Z,100195.40
2023-05-21T07:39:00.639Z,100204.38
2023-05-21T07:41:28.305Z,100192.73
2023-05-21T07:43:56.399Z,100196.96
2023-05-21T07:46:23.233Z,100195.52
2023-05-21T07:48:52.272Z,100199.00
2023-05-21T07:51:18.807Z,100200.52
2023-05-21T07:53:45.508Z,100200.96
2023-05-21T07:56:13.389Z,100197.45
2023-05-21T07:58:41.094Z,100198.05
2023-05-21T08:01:07.771Z,100198.16
2023-05-21T08:03:35.618Z,100199.29
2023-05-21T08:06:03.310Z,100196.45
2023-05-21T08:08:30.602Z,100194.54
2023-05-21T08:10:57.502Z,100194.87
2023-05-21T08:13:25.546Z,100191.52
2023-05-21T08:15:53.373Z,100190.06
2023-05-21T08:18:25.110Z,100191.58
2023-05-21T08:20:53.833Z,100194.61
2023-05-21T08:23:20.849Z,100194.94
2023-05-21T08:25:50.750Z,100195.73
2023-05-21T08:28:17.717Z,100192.17
2023-05-21T08:30:44.148Z,100194.87
2023-05-21T08:33:11.093Z,100191.55
2023-05-21T08:35:38.796Z,100191.96
2023-05-21T08:38:27.039Z,100189.20
2023-05-21T08:40:58.519Z,100188.77
2023-05-21T08:43:27.102Z,100190.94
2023-05-21T08:45:54.801Z,100189.23
2023-05-21T08:48:23.782Z,100184.92
2023-05-21T08:50:51.936Z,100186.61
2023-05-21T08:53:28.272Z,100185.42
2023-05-21T08:55:56.829Z,100185.01
2023-05-21T08:58:25.554Z,100187.70
2023-05-21T09:00:54.252Z,100186.86
2023-05-21T09:03:22.647Z,100188.33
2023-05-21T09:05:49.253Z,100190.80
2023-05-21T09:08:18.391Z,100190.00
2023-05-21T09:10:52.099Z,100191.70
2023-05-21T09:13:21.199Z,100183.81
2023-05-21T09:15:48.655Z,100186.85
2023-05-21T09:18:15.905Z,100188.52
2023-05-21T09:20:49.284Z,100192.48
2023-05-21T09:23:17.112Z,100191.30
2023-05-21T09:25:48.276Z,100195.93
2023-05-21T09:28:21.595Z,100191.94
2023-05-21T09:30:51.789Z,100197.31
2023-05-21T09:33:25.896Z,100195.06
2023-05-21T09:35:52.941Z,100198.23
2023-05-21T09:38:22.192Z,100192.05
2023-05-21T09:40:48.899Z,100191.89
2023-05-21T09:43:16.783Z,100191.25
2023-05-21T09:45:54.047Z,100190.62
2023-05-21T09:48:39.035Z,100194.27
2023-05-21T09:51:08.071Z,100194.29
2023-05-21T09:53:34.900Z,100199.38
2023-05-21T09:56:01.558Z,100196.83
2023-05-21T09:58:29.378Z,100200.38
2023-05-21T10:00:56.373Z,100201.23
2023-05-21T10:03:23.241Z,100202.52
2023-05-21T10:05:51.125Z,100207.13
2023-05-21T10:08:18.657Z,100205.14
2023-05-21T10:10:45.315Z,100201.64
2023-05-21T10:13:12.371Z,100194.64
2023-05-21T10:15:50.145Z,100193.23
2023-05-21T10:18:17.841Z,100199.69
2023-05-21T10:20:44.344Z,100200.93
2023-05-21T10:23:10.779Z,100190.84
2023-05-21T10:25:37.488Z,100193.83
2023-05-21T10:28:06.405Z,100188.79
2023-05-21T10:30:34.115Z,100189.55
2023-05-21T10:33:01.561Z,100189.75
2023-05-21T10:35:28.175Z,100193.32
2023-05-21T10:37:55.248Z,100191.34
2023-05-21T10:40:21.754Z,100190.23
2023-05-21T10:43:07.222Z,100190.41
2023-05-21T10:46:10.199Z,100191.66
2023-05-21T10:48:50.580Z,100189.95
2023-05-21T10:51:21.968Z,100177.96
2023-05-21T10:54:01.432Z,100179.40
2023-05-21T10:57:01.199Z,100171.37
2023-05-21T10:59:56.820Z,100176.73
2023-05-21T11:02:26.175Z,100175.86
2023-05-21T11:04:59.606Z,100171.80
2023-05-21T11:07:55.786Z,100169.34
2023-05-21T11:10:39.918Z,100169.80
2023-05-21T11:13:13.395Z,100170.59
2023-05-21T11:15:58.785Z,100169.73
2023-05-21T11:18:34.606Z,100168.86
2023-05-21T11:21:05.648Z,100159.20
2023-05-21T11:24:39.331Z,100160.91
2023-05-21T11:27:07.263Z,100164.84
2023-05-21T11:29:42.450Z,100163.88
2023-05-21T11:32:09.853Z,100165.15
2023-05-21T11:34:42.117Z,100167.73
2023-05-21T11:37:29.219Z,100160.73
2023-05-21T11:39:58.253Z,100158.17
2023-05-21T11:42:36.441Z,100162.75
2023-05-21T11:45:04.376Z,100157.67
2023-05-21T11:47:32.742Z,100153.55
2023-05-21T11:50:01.470Z,100152.24
2023-05-21T11:52:30.300Z,100150.76
2023-05-21T11:54:58.376Z,100149.11
2023-05-21T11:57:29.261Z,100147.50
2023-05-21T11:59:58.651Z,100144.55
2023-05-21T12:02:30.033Z,100142.61
2023-05-21T12:05:00.810Z,100143.96
2023-05-21T12:07:29.869Z,100150.61
2023-05-21T12:09:57.317Z,100153.19
2023-05-21T12:12:27.178Z,100151.76
2023-05-21T12:14:56.493Z,100154.09
2023-05-21T12:17:24.780Z,100151.38
2023-05-21T12:19:53.759Z,100152.06
2023-05-21T12:22:21.101Z,100149.40
2023-05-21T12:24:51.260Z,100149.03
2023-05-21T12:27:18.556Z,100146.27
2023-05-21T12:29:46.871Z,100144.52
2023-05-21T12:32:15.003Z,100137.66
2023-05-21T12:34:50.073Z,100134.19
2023-05-21T12:37:32.904Z,100130.00
2023-05-21T12:40:01.368Z,100125.52
2023-05-21T12:42:34.984Z,100118.92
2023-05-21T12:45:06.639Z,100120.50
2023-05-21T12:47:34.520Z,100114.81
2023-05-21T12:50:02.482Z,100113.55
2023-05-21T12:52:33.285Z,100106.54
2023-05-21T12:55:01.278Z,100107.21
2023-05-21T12:57:35.876Z,100103.11
2023-05-21T13:07:40.015Z,100095.37
2023-05-21T13:10:08.116Z,100094.26
2023-05-21T13:12:37.209Z,100094.27
2023-05-21T13:15:05.384Z,100093.05
2023-05-21T13:17:33.098Z,100091.04
2023-05-21T13:20:13.960Z,100088.55
2023-05-21T13:22:49.146Z,100082.89
2023-05-21T13:25:21.535Z,100080.58
2023-05-21T13:27:49.794Z,100078.71
2023-05-21T13:30:20.069Z,100073.45
2023-05-21T13:32:48.065Z,100067.90
2023-05-21T13:35:17.378Z,100069.45
2023-05-21T13:37:45.407Z,100069.14
2023-05-21T13:40:17.295Z,100065.60
2023-05-21T13:42:45.807Z,100062.15
2023-05-21T13:45:14.190Z,100063.66
2023-05-21T13:47:45.498Z,100064.29
2023-05-21T13:50:12.895Z,100063.25
2023-05-21T13:52:40.357Z,100059.91
2023-05-21T13:55:08.206Z,100061.29
2023-05-21T13:57:35.614Z,100066.02
2023-05-21T14:00:03.429Z,100072.09
2023-05-21T14:02:35.645Z,100082.61
2023-05-21T14:05:02.940Z,100083.44
2023-05-21T14:07:31.157Z,100084.83
2023-05-21T14:09:58.586Z,100085.85
2023-05-21T14:12:26.879Z,100082.48
2023-05-21T14:14:53.963Z,100081.65
2023-05-21T14:17:21.339Z,100085.66
2023-05-21T14:19:48.682Z,100086.08
2023-05-21T14:22:16.389Z,100090.83
2023-05-21T14:24:43.743Z,100094.17
2023-05-21T14:27:12.592Z,100091.48
2023-05-21T14:29:41.202Z,100092.78
2023-05-21T14:32:08.598Z,100098.17
2023-05-21T14:34:38.642Z,100099.05
2023-05-21T14:44:47.860Z,100099.79
2023-05-21T14:47:15.120Z,100098.39
2023-05-21T14:49:42.358Z,100095.53
2023-05-21T14:52:09.613Z,100089.98
2023-05-21T14:54:37.683Z,100087.65
2023-05-21T14:57:05.153Z,100085.08
2023-05-21T14:59:32.522Z,100082.52
2023-05-21T15:02:01.047Z,100085.85
2023-05-21T15:04:28.576Z,100085.41
2023-05-21T15:06:56.136Z,100085.48
2023-05-21T15:09:23.465Z,100080.65
2023-05-21T15:11:52.974Z,100082.67
2023-05-21T15:14:20.939Z,100081.81
2023-05-21T15:16:48.280Z,100083.16
2023-05-21T15:19:15.889Z,100075.64
2023-05-21T15:21:43.427Z,100076.77
2023-05-21T15:24:11.600Z,100075.92
2023-05-21T15:26:38.838Z,100074.41
2023-05-21T15:29:06.928Z,100074.20
2023-05-21T15:31:34.164Z,100070.91
2023-05-21T15:34:01.318Z,100071.33
2023-05-21T15:36:28.895Z,100069.35
2023-05-21T15:38:56.210Z,100068.56
2023-05-21T15:41:23.419Z,100072.41
2023-05-21T15:43:51.292Z,100070.98
2023-05-21T15:46:19.537Z,100068.70
2023-05-21T15:48:46.777Z,100069.45
2023-05-21T15:51:14.455Z,100067.50
2023-05-21T15:53:42.556Z,100065.02
2023-05-21T15:56:10.215Z,100065.66
2023-05-21T15:58:38.050Z,100064.05
2023-05-21T16:01:05.194Z,100066.88
2023-05-21T16:03:32.982Z,100063.77
2023-05-21T16:06:00.390Z,100066.20
2023-05-21T16:08:27.676Z,100057.99
2023-05-21T16:10:55.124Z,100052.93
2023-05-21T16:13:22.172Z,100048.41
2023-05-21T16:15:51.167Z,100046.14
2023-05-21T16:18:18.719Z,100048.67
2023-05-21T16:20:47.450Z,100051.75
2023-05-21T16:23:14.833Z,100046.18
2023-05-21T16:25:42.017Z,100051.67
2023-05-21T16:28:09.962Z,100047.77
2023-05-21T16:30:37.112Z,100050.90
2023-05-21T16:33:04.413Z,100050.48
2023-05-21T16:35:32.242Z,100046.95
2023-05-21T16:37:59.991Z,100046.98
2023-05-21T16:40:27.561Z,100044.19
2023-05-21T16:42:54.836Z,100048.62
2023-05-21T16:45:22.317Z,100054.87
2023-05-21T16:47:50.723Z,100056.55
2023-05-21T16:50:19.560Z,100056.27
2023-05-21T16:52:46.816Z,100054.88
2023-05-21T16:55:14.108Z,100055.64
2023-05-21T16:57:41.384Z,100051.52
2023-05-21T17:00:09.361Z,100063.70
2023-05-21T17:02:37.119Z,100074.17
2023-05-21T17:05:05.362Z,100086.73
2023-05-21T17:07:32.920Z,100081.15
2023-05-21T17:10:00.413Z,100081.52
2023-05-21T17:12:27.874Z,100076.71
2023-05-21T17:14:56.670Z,100076.39
2023-05-21T17:17:24.193Z,100076.11
2023-05-21T17:19:51.529Z,100070.13
2023-05-21T17:22:19.587Z,100068.86
2023-05-21T17:24:46.753Z,100069.30
2023-05-21T17:27:15.081Z,100069.52
2023-05-21T17:29:42.753Z,100062.59
2023-05-21T17:32:10.315Z,100058.14
2023-05-21T17:34:37.595Z,100058.67
2023-05-21T17:37:04.991Z,100059.17
2023-05-21T17:39:33.890Z,100062.71
2023-05-21T23:41:54.366Z,99929.09
2023-05-21T23:44:21.123Z,99930.87
2023-05-21T23:46:48.239Z,99925.76
2023-05-21T23:49:14.764Z,99924.69
2023-05-21T23:51:41.360Z,99921.31
2023-05-21T23:54:08.197Z,99921.61
2023-05-21T23:56:34.781Z,99920.05
2023-05-21T23:59:01.727Z,99918.73
